Vers la page d'accueil de NAV CANADA Ouverture d'une nouvelle session Chercher sur le site AWWS Clause de non-reponsabilité To the equivalent English page Trucs et astuces FAQ Quoi de neuf sur le site Vers la section Prévisions et observations / NOTAM Vers le site web pour <<Déposer un plan de vol>> Publications et liens importants Mise à jour du profil d'usager Numéros de téléphone des FIC Mes données météo personnelles Données météo de route Données météo régionales Données météo locales Vers la section Prévisions et observations / NOTAM
Requête générée le 2022/06/30 à 10:21:50 UTC. L'information météorologique disponible à ce moment est affichée.

METAR/TAF

Si vous notez des différences entre le METAR/TAF codé et le METAR/TAF en langage clair, veuillez utiliser la version codée. Les bulletins LWIS ne sont pas décodés en langage clair.

SHERBROOKE/QC    (voir Cam météo)

METAR CYSC 301000Z AUTO 26006KT 9SM SCT010 SCT013 13/12 A3017 RMK SLP219=
METAR
LIEU
CYSC - SHERBROOKE/QC
DATE - HEURE
30 JUIN 2022 - 1000 UTC
VENT
260 VRAIS @ 6  NOEUDS
VISIBILITE
9 MILLES TERR.
PORTEE VISUELLE DE PISTE
METEO
NEBULOSITE
NUAGES EPARS (3/8 - 4/8) 1000  PI
NUAGES EPARS (3/8 - 4/8) 1300  PI
TEMP / PT DE ROSEE
13 C / 12 C
ALTIMETRE
30.17 PO HG
TEMPS RECENT
CISAILLEMENT

SPECI CYSC 300935Z AUTO 29006KT 9SM SCT015 13/12 A3016 RMK SLP220=
SPECI
LIEU
CYSC - SHERBROOKE/QC
DATE - HEURE
30 JUIN 2022 - 0935 UTC
VENT
290 VRAIS @ 6  NOEUDS
VISIBILITE
9 MILLES TERR.
PORTEE VISUELLE DE PISTE
METEO
NEBULOSITE
NUAGES EPARS (3/8 - 4/8) 1500  PI
TEMP / PT DE ROSEE
13 C / 12 C
ALTIMETRE
30.16 PO HG
TEMPS RECENT
CISAILLEMENT

METAR CYSC 300900Z AUTO 27007KT 9SM BKN013 OVC019 13/12 A3015 RMK SLP212=
METAR
LIEU
CYSC - SHERBROOKE/QC
DATE - HEURE
30 JUIN 2022 - 0900 UTC
VENT
270 VRAIS @ 7  NOEUDS
VISIBILITE
9 MILLES TERR.
PORTEE VISUELLE DE PISTE
METEO
NEBULOSITE
NUAGES FRAGMENTES (5/8 - 7/8) 1300  PI
CIEL COUVERT 1900  PI
TEMP / PT DE ROSEE
13 C / 12 C
ALTIMETRE
30.15 PO HG
TEMPS RECENT
CISAILLEMENT

METAR CYSC 300800Z AUTO 28007KT 9SM SCT011 BKN017 BKN024 14/13 A3013 RMK SLP206
METAR
LIEU
CYSC - SHERBROOKE/QC
DATE - HEURE
30 JUIN 2022 - 0800 UTC
VENT
280 VRAIS @ 7  NOEUDS
VISIBILITE
9 MILLES TERR.
PORTEE VISUELLE DE PISTE
METEO
NEBULOSITE
NUAGES EPARS (3/8 - 4/8) 1100  PI
NUAGES FRAGMENTES (5/8 - 7/8) 1700  PI
NUAGES FRAGMENTES (5/8 - 7/8) 2400  PI
TEMP / PT DE ROSEE
14 C / 13 C
ALTIMETRE
30.13 PO HG
TEMPS RECENT
CISAILLEMENT

*** REMARQUE : La période de prévision est échue; ceci était le dernier TAF qui a été émis
TAF CYSC 292340Z 3000/3003 29010G20KT P6SM -SHRA FEW040 BKN060 TEMPO 3000/3001 VRB15G30KT 2SM TSRA BR BKN020 OVC040CB FM300100 25008KT P6SM BKN060 TEMPO 3001/3003 P6SM -SHRA PROB30 3001/3002 VRB15G30KT 2SM TSRA BR BKN020 OVC040CB RMK FCST BASED ON AUTO OBS. NXT FCST BY 301100Z=
TAF
LIEU

CYSC - SHERBROOKE/QC
VALIDITE [UTC]
29 JUN - 2340 à
30 JUN - 0300
 
PERIODES
[UTC]
VENT
[DEGRES VRAIS]
VISIBILITE
[MILLES TERR.]
METEO
NEBULOSITE
[PIEDS AGL]
 
30 JUN - 0000 à
30 JUN - 0100
290 @ 10 NOEUDS
RAFALES 20 NOEUDS
6+
AVERSE DE PLUIE FAIBLE
4000 QUELQUES
6000 FRAGMENTES
CHANGEMENTS TEMPORAIRES
30 JUN - 0000 à
30 JUN - 0100
VARIABLE @ 15 NOEUDS
RAFALES 30 NOEUDS
2
ORAGE AVEC PLUIE MODEREE
BRUME
2000 FRAGMENTES
4000 CIEL COUVERT AVEC CUMULONIMBUS
 
30 JUN - 0100 à
30 JUN - 0300
250 @ 8 NOEUDS
6+
---
6000 FRAGMENTES
CHANGEMENTS TEMPORAIRES
30 JUN - 0100 à
30 JUN - 0300
 
6+
AVERSE DE PLUIE FAIBLE
 
30% PROBABILITE
30 JUN - 0100 à
30 JUN - 0200
VARIABLE @ 15 NOEUDS
RAFALES 30 NOEUDS
2
ORAGE AVEC PLUIE MODEREE
BRUME
2000 FRAGMENTES
4000 CIEL COUVERT AVEC CUMULONIMBUS
REMARQUES


Votre heure Heure UTC
Données météorologiques fournies par Environnement Canada et NAV CANADA